Time;durP1;ratioP1;P1;durP2;ratioP2;P2;SDS_P1;SDS_P2;PMS_P1;PMS_P2;Temp;Humidity;BMP_temperature;BMP_pressure;BME280_temperature;BME280_humidity;BME280_pressure;Samples;Min_cycle;Max_cycle;Signal;HPM_P1;HPM_P2
2022/04/12 00:01:15;;;;;;;4.97;2.98;;;;;;;20.13;34.89;101124.01;1661677;85;20926;-60
2022/04/12 00:03:42;;;;;;;3.15;2.70;;;;;;;20.12;34.87;101123.19;1662048;86;21545;-60
2022/04/12 00:06:08;;;;;;;5.45;2.87;;;;;;;20.11;34.86;101127.66;1661836;86;21054;-60
2022/04/12 00:08:34;;;;;;;4.17;2.87;;;;;;;20.11;34.85;101123.52;1661678;86;20973;-60
2022/04/12 00:11:00;;;;;;;5.25;2.98;;;;;;;20.11;34.85;101123.52;1661959;86;20921;-60
2022/04/12 00:13:26;;;;;;;5.67;3.17;;;;;;;20.10;34.86;101119.92;1661549;86;20972;-60
2022/04/12 00:15:52;;;;;;;6.90;3.05;;;;;;;20.10;34.85;101120.48;1661829;86;21513;-60
2022/04/12 00:21:03;;;;;;;5.00;3.33;;;;;;;20.09;34.84;101125.19;1661813;86;21020;-60
2022/04/12 00:23:29;;;;;;;4.40;2.80;;;;;;;20.09;34.81;101115.52;1661749;86;20925;-60
2022/04/12 00:25:56;;;;;;;4.15;3.02;;;;;;;20.08;34.80;101118.02;1661654;85;21021;-60
2022/04/12 00:28:22;;;;;;;3.80;2.83;;;;;;;20.07;34.80;101116.41;1661651;86;20933;-60
2022/04/12 00:30:48;;;;;;;4.65;3.20;;;;;;;20.07;34.80;101118.58;1661986;86;21470;-60
2022/04/12 00:33:20;;;;;;;6.17;3.60;;;;;;;20.07;34.80;101119.17;1661912;86;20972;-60
2022/04/12 00:35:46;;;;;;;5.08;2.87;;;;;;;20.06;34.79;101116.97;1658933;85;21009;-60
2022/04/12 00:38:17;;;;;;;5.70;3.35;;;;;;;20.05;34.79;101115.32;1661986;86;21375;-60
2022/04/12 00:40:43;;;;;;;;;;;;;;;20.05;34.79;101113.12;1664198;86;21314;-60
2022/04/12 00:43:09;;;;;;;3.92;2.62;;;;;;;20.04;34.75;101116.44;1662465;85;21028;-60
2022/04/12 00:45:35;;;;;;;4.22;2.87;;;;;;;20.04;34.80;101121.97;1662330;86;21099;-60
2022/04/12 00:48:02;;;;;;;3.67;3.02;;;;;;;20.02;34.78;101118.70;1645281;87;21314;-60
2022/04/12 00:50:28;;;;;;;5.53;2.98;;;;;;;20.02;34.77;101126.99;1661650;85;22059;-60
2022/04/12 00:52:54;;;;;;;5.53;3.02;;;;;;;20.02;34.77;101125.61;1662015;85;20994;-60
2022/04/12 00:55:21;;;;;;;5.42;3.30;;;;;;;20.02;34.77;101120.64;1661722;86;21888;-60
2022/04/12 00:57:48;;;;;;;4.50;2.90;;;;;;;20.03;34.75;101129.16;1661343;85;20969;-60
2022/04/12 01:00:18;;;;;;;3.62;2.98;;;;;;;20.02;34.75;101115.13;1661866;86;21367;-60
2022/04/12 01:02:44;;;;;;;4.50;3.08;;;;;;;20.00;34.74;101114.03;1661834;85;21308;-60
2022/04/12 01:05:10;;;;;;;4.37;3.17;;;;;;;20.00;34.72;101115.41;1661890;86;22018;-60
2022/04/12 01:07:43;;;;;;;3.77;2.77;;;;;;;20.00;34.71;101122.31;1661509;86;21658;-60
2022/04/12 01:10:09;;;;;;;4.37;3.00;;;;;;;20.00;34.71;101119.55;1662000;85;21017;-60
2022/04/12 01:12:39;;;;;;;5.53;3.05;;;;;;;20.00;34.69;101116.80;1661581;86;21052;-60
2022/04/12 01:15:21;;;;;;;5.30;3.35;;;;;;;20.01;34.67;101120.38;1662003;86;21005;-60
2022/04/12 01:17:47;;;;;;;3.60;2.62;;;;;;;20.00;34.68;101118.73;1661847;86;21045;-60
2022/04/12 01:20:17;;;;;;;3.77;3.10;;;;;;;20.00;34.68;101115.97;1662222;86;21085;-60
2022/04/12 01:23:05;;;;;;;4.72;3.20;;;;;;;19.99;34.67;101119.30;1662015;85;21372;-60
2022/04/12 01:25:31;;;;;;;4.55;3.20;;;;;;;19.99;34.67;101114.33;1661718;86;21040;-60
2022/04/12 01:27:57;;;;;;;4.37;3.08;;;;;;;19.99;34.63;101112.95;1637340;86;21377;-60
2022/04/12 01:30:23;;;;;;;3.92;3.20;;;;;;;19.98;34.64;101114.92;1661979;86;21031;-60
2022/04/12 01:32:50;;;;;;;4.83;2.87;;;;;;;19.98;34.62;101110.78;1661984;86;22173;-60
2022/04/12 01:35:16;;;;;;;6.90;3.50;;;;;;;19.98;34.62;101111.33;1661678;86;20949;-60
2022/04/12 01:37:42;;;;;;;4.62;3.12;;;;;;;19.97;34.60;101105.55;1662189;86;20989;-60
2022/04/12 01:40:09;;;;;;;5.33;3.08;;;;;;;19.96;34.58;101107.48;1661723;86;20962;-60
2022/04/12 01:42:38;;;;;;;6.17;3.22;;;;;;;19.97;34.57;101105.55;1661957;86;21037;-60
2022/04/12 01:45:10;;;;;;;4.03;2.87;;;;;;;19.97;34.57;101104.16;1661825;86;21060;-60
2022/04/12 01:47:36;;;;;;;4.08;3.02;;;;;;;19.95;34.56;101097.55;1661436;86;21000;-60
2022/04/12 01:50:06;;;;;;;6.35;3.10;;;;;;;19.94;34.52;101102.81;1662168;85;20929;-60
2022/04/12 01:52:33;;;;;;;5.05;2.98;;;;;;;19.96;34.54;101102.52;1661690;86;21366;-60
2022/04/12 01:55:00;;;;;;;4.72;2.92;;;;;;;19.95;34.52;101101.70;1661783;86;20910;-60
2022/04/12 01:57:26;;;;;;;4.72;3.02;;;;;;;19.95;34.51;101096.73;1661752;85;21884;-60
2022/04/12 01:59:52;;;;;;;3.45;2.67;;;;;;;19.95;34.49;101104.46;1662155;86;20905;-60
2022/04/12 02:02:18;;;;;;;4.37;3.08;;;;;;;19.95;34.49;101103.64;1661659;86;21052;-60
2022/04/12 02:04:44;;;;;;;5.70;3.30;;;;;;;19.93;34.49;101094.30;1662077;86;21365;-60
2022/04/12 02:07:10;;;;;;;4.95;2.77;;;;;;;19.93;34.45;101099.82;1662204;85;21016;-60
2022/04/12 02:09:36;;;;;;;5.53;2.95;;;;;;;19.93;34.44;101112.81;1661679;85;21278;-60
2022/04/12 02:12:03;;;;;;;4.12;3.10;;;;;;;19.93;34.42;101101.20;1662181;86;21036;-60
2022/04/12 02:14:29;;;;;;;4.50;3.17;;;;;;;19.91;34.40;101110.34;1661975;85;21431;-60
2022/04/12 02:16:55;;;;;;;4.22;3.00;;;;;;;19.91;34.37;101110.90;1661865;86;20953;-60
2022/04/12 02:19:21;;;;;;;4.75;3.40;;;;;;;19.92;34.37;101107.02;1661944;86;20941;-60
2022/04/12 02:21:47;;;;;;;4.87;3.17;;;;;;;19.91;34.31;101110.34;1662128;86;21218;-58
2022/04/12 02:24:13;;;;;;;3.25;2.70;;;;;;;19.90;34.32;101097.65;1661414;85;20941;-58
2022/04/12 02:26:39;;;;;;;4.62;3.10;;;;;;;19.90;34.29;101105.94;1661759;86;20961;-58
2022/04/12 02:29:06;;;;;;;4.58;2.95;;;;;;;19.90;34.26;101107.91;1661953;86;21346;-58
2022/04/12 02:31:33;;;;;;;5.47;3.05;;;;;;;19.89;34.21;101108.46;1661671;86;21031;-58
2022/04/12 02:33:59;;;;;;;5.53;3.02;;;;;;;19.89;34.21;101097.98;1661879;85;21353;-58
2022/04/12 02:36:25;;;;;;;4.12;2.98;;;;;;;19.88;34.20;101106.00;1647887;85;20913;-58
2022/04/12 02:38:51;;;;;;;4.65;3.15;;;;;;;19.89;34.19;101097.98;1637300;87;22048;-57
2022/04/12 02:41:17;;;;;;;6.28;3.22;;;;;;;19.89;34.18;101103.50;1637563;86;21443;-58
2022/04/12 02:43:43;;;;;;;5.42;3.22;;;;;;;19.88;34.15;101104.62;1637792;87;21011;-58
2022/04/12 02:46:09;;;;;;;5.40;3.30;;;;;;;19.88;34.13;101104.05;1637090;87;21734;-58
2022/04/12 02:48:35;;;;;;;4.40;3.17;;;;;;;19.88;34.09;101099.09;1637697;87;21028;-58
2022/04/12 02:51:01;;;;;;;4.33;3.25;;;;;;;19.87;34.09;101097.45;1637521;87;21075;-58
2022/04/12 02:53:28;;;;;;;4.25;3.10;;;;;;;19.88;34.07;101108.76;1637496;87;20972;-58
2022/04/12 02:55:54;;;;;;;5.15;3.40;;;;;;;19.87;34.04;101105.73;1637484;87;20973;-58
2022/04/12 02:58:20;;;;;;;3.98;2.92;;;;;;;19.86;34.02;101096.62;1637500;86;21831;-58
2022/04/12 03:00:46;;;;;;;5.60;3.40;;;;;;;19.86;34.00;101109.05;1636928;86;21039;-57
2022/04/12 03:03:12;;;;;;;4.97;2.85;;;;;;;19.86;33.95;101104.91;1636945;87;20882;-58
2022/04/12 03:05:38;;;;;;;4.28;2.92;;;;;;;19.86;33.94;101110.43;1636994;87;20968;-58
2022/04/12 03:08:05;;;;;;;4.40;3.12;;;;;;;19.84;33.93;101104.41;1636641;87;20925;-58
2022/04/12 03:10:31;;;;;;;5.20;3.55;;;;;;;19.86;33.89;101109.64;1637169;87;21103;-58
2022/04/12 03:12:57;;;;;;;4.72;3.45;;;;;;;19.85;33.88;101112.96;1636854;87;21454;-58
2022/04/12 03:15:23;;;;;;;6.20;3.37;;;;;;;19.86;33.88;101111.02;1637098;87;21023;-58
2022/04/12 03:17:49;;;;;;;6.80;3.50;;;;;;;19.85;33.86;101112.14;1637522;87;21053;-58
2022/04/12 03:20:15;;;;;;;4.80;3.22;;;;;;;19.85;33.83;101115.72;1637763;86;21010;-58
2022/04/12 03:22:42;;;;;;;4.40;3.10;;;;;;;19.84;33.82;101112.70;1637057;87;21330;-57
2022/04/12 03:25:11;;;;;;;5.17;3.72;;;;;;;19.84;33.83;101116.84;1637553;87;21037;-57
2022/04/12 03:27:37;;;;;;;5.22;3.27;;;;;;;19.84;33.83;101116.84;1637502;87;21019;-57
2022/04/12 03:30:05;;;;;;;7.22;3.15;;;;;;;19.83;33.81;101119.89;1637344;87;20929;-57
2022/04/12 03:32:31;;;;;;;5.17;3.55;;;;;;;19.84;33.80;101122.92;1637518;87;21315;-58
2022/04/12 03:34:57;;;;;;;6.42;3.58;;;;;;;19.83;33.79;101129.00;1637468;87;21206;-57
2022/04/12 03:37:23;;;;;;;6.97;3.45;;;;;;;19.83;33.75;101138.66;1637287;85;20964;-58
2022/04/12 03:39:51;;;;;;;7.60;3.60;;;;;;;19.82;33.73;101135.63;1637266;87;20993;-58
2022/04/12 03:42:18;;;;;;;5.15;3.35;;;;;;;19.82;33.71;101137.58;1637568;87;21413;-58
2022/04/12 03:44:46;;;;;;;4.92;3.30;;;;;;;19.82;33.75;101138.39;1637210;87;21032;-58
2022/04/12 03:47:12;;;;;;;4.87;3.10;;;;;;;19.82;33.77;101143.92;1637539;87;21177;-57
2022/04/12 03:49:38;;;;;;;4.72;3.40;;;;;;;19.83;33.80;101140.04;1637236;87;20861;-58
2022/04/12 03:52:06;;;;;;;4.45;3.00;;;;;;;19.84;33.84;101135.34;1637314;87;21350;-58
2022/04/12 03:54:32;;;;;;;6.55;3.15;;;;;;;19.86;33.85;101147.70;1637654;87;20969;-58
2022/04/12 03:56:58;;;;;;;4.95;2.92;;;;;;;19.88;33.87;101153.77;1637474;87;21397;-58
2022/04/12 03:59:24;;;;;;;5.72;3.42;;;;;;;19.91;33.85;101149.00;1637548;87;21316;-57
2022/04/12 04:01:50;;;;;;;6.03;3.42;;;;;;;19.97;33.80;101154.70;1636402;87;21314;-58
2022/04/12 04:04:17;;;;;;;6.10;3.10;;;;;;;20.03;33.71;101158.16;1635444;87;21004;-57
2022/04/12 04:06:43;;;;;;;5.28;4.00;;;;;;;20.07;33.63;101154.48;1635768;87;20972;-57
2022/04/12 04:09:09;;;;;;;6.97;3.50;;;;;;;20.14;33.52;101151.90;1637380;86;21503;-58
2022/04/12 04:11:38;;;;;;;5.25;3.25;;;;;;;20.21;33.40;101148.16;1637036;86;21153;-58
2022/04/12 04:14:06;;;;;;;6.47;3.22;;;;;;;20.26;33.26;101144.73;1637241;87;21393;-58
2022/04/12 04:16:33;;;;;;;5.62;3.40;;;;;;;20.32;33.12;101151.02;1637400;87;21008;-58
2022/04/12 04:18:59;;;;;;;4.83;2.98;;;;;;;20.38;33.01;101152.53;1637538;87;20984;-58
2022/04/12 04:21:25;;;;;;;4.72;3.50;;;;;;;20.45;32.87;101154.34;1637126;87;21033;-58
2022/04/12 04:23:51;;;;;;;4.95;3.10;;;;;;;20.51;32.72;101153.09;1637188;87;22306;-58
2022/04/12 04:26:17;;;;;;;5.62;3.70;;;;;;;20.56;32.61;101151.61;1632516;87;20900;-58
2022/04/12 04:28:44;;;;;;;5.85;3.22;;;;;;;20.62;32.46;101157.30;1635933;87;21043;-58
2022/04/12 04:31:11;;;;;;;4.90;3.15;;;;;;;20.66;32.34;101160.26;1638036;86;21089;-58
2022/04/12 04:33:43;;;;;;;5.15;3.05;;;;;;;20.69;32.27;101161.84;1633222;87;21063;-58
2022/04/12 04:36:09;;;;;;;5.60;3.05;;;;;;;20.73;32.18;101161.47;1627602;86;21175;-58
2022/04/12 04:38:35;;;;;;;6.25;3.50;;;;;;;20.76;32.06;101174.66;1628182;87;20953;-58
2022/04/12 04:41:01;;;;;;;7.20;3.58;;;;;;;20.79;31.96;101176.80;1625863;88;21087;-58
2022/04/12 04:43:28;;;;;;;7.67;3.42;;;;;;;20.81;31.84;101175.13;1652319;84;21101;-58
2022/04/12 04:45:54;;;;;;;6.30;3.15;;;;;;;20.84;31.79;101178.64;1642207;87;21442;-58
2022/04/12 04:48:20;;;;;;;12.40;3.77;;;;;;;20.86;31.71;101178.60;1651383;84;21133;-59
2022/04/12 04:50:46;;;;;;;9.60;3.47;;;;;;;20.88;31.62;101180.48;1629604;86;21159;-58
2022/04/12 04:53:12;;;;;;;8.83;3.52;;;;;;;20.88;31.55;101180.48;1648627;84;21040;-58
2022/04/12 04:55:42;;;;;;;12.43;3.65;;;;;;;20.89;31.50;101179.36;1662774;84;21000;-60
2022/04/12 04:58:06;;;;;;;13.25;4.22;;;;;;;20.89;31.47;101185.45;1667799;84;21055;-58
2022/04/12 05:00:34;;;;;;;14.53;4.55;;;;;;;20.90;31.52;101188.48;1659445;84;21085;-60
2022/04/12 05:03:01;;;;;;;20.05;4.08;;;;;;;20.89;31.53;101183.50;1613075;86;21591;-59
2022/04/12 05:05:28;;;;;;;14.18;4.37;;;;;;;20.91;31.43;101182.64;1655222;84;20956;-58
2022/04/12 05:07:55;;;;;;;11.38;3.45;;;;;;;20.92;31.36;101189.79;1623504;86;21368;-58
2022/04/12 05:10:32;;;;;;;13.20;4.70;;;;;;;20.95;31.31;101187.80;1671429;84;21080;-59
2022/04/12 05:12:59;;;;;;;13.95;4.47;;;;;;;20.99;31.35;101186.62;1653470;84;21133;-59
2022/04/12 05:15:27;;;;;;;14.70;4.10;;;;;;;21.02;31.36;101187.37;1661771;84;21127;-59
2022/04/12 05:17:53;;;;;;;11.43;4.58;;;;;;;21.05;31.44;101195.63;1629101;87;21375;-58
2022/04/12 05:20:21;;;;;;;11.68;4.70;;;;;;;21.07;31.52;101192.80;1649147;84;21013;-59
2022/04/12 05:22:47;;;;;;;9.85;4.95;;;;;;;21.10;31.65;101198.25;1660539;85;20972;-59
2022/04/12 05:25:14;;;;;;;11.28;5.67;;;;;;;21.11;31.86;101192.98;1640674;85;21823;-59
2022/04/12 05:27:41;;;;;;;10.48;5.80;;;;;;;21.14;32.00;101198.73;1655462;84;21215;-58
2022/04/12 05:30:14;;;;;;;11.20;5.67;;;;;;;21.17;32.12;101194.55;1639699;85;21126;-59
2022/04/12 05:32:40;;;;;;;16.32;7.15;;;;;;;21.20;32.20;101194.73;1655572;84;21327;-58
2022/04/12 05:35:07;;;;;;;12.15;6.72;;;;;;;21.23;32.28;101184.98;1653943;85;21104;-59
2022/04/12 05:37:45;;;;;;;13.00;6.95;;;;;;;21.25;32.38;101185.50;1659330;85;22122;-58
2022/04/12 05:40:12;;;;;;;11.63;6.25;;;;;;;21.27;32.45;101195.67;1661443;84;21053;-59
2022/04/12 05:42:39;;;;;;;12.15;7.28;;;;;;;21.30;32.52;101193.69;1663079;84;20908;-59
2022/04/12 05:45:07;;;;;;;14.68;7.83;;;;;;;21.34;32.57;101193.31;1664674;85;20956;-59
2022/04/12 05:47:51;;;;;;;14.00;7.72;;;;;;;21.37;32.56;101195.45;1633342;86;21395;-58
2022/04/12 05:50:19;;;;;;;18.70;8.45;;;;;;;21.38;32.62;101208.16;1635295;86;21264;-58
2022/04/12 05:52:46;;;;;;;21.82;7.33;;;;;;;21.38;32.65;101197.91;1624821;86;21454;-60
2022/04/12 05:55:15;;;;;;;15.43;7.15;;;;;;;21.39;32.73;101204.23;1617138;87;20946;-59
2022/04/12 05:57:54;;;;;;;13.15;7.10;;;;;;;21.43;32.89;101205.25;1661479;84;21405;-58
2022/04/12 06:00:21;;;;;;;16.12;6.75;;;;;;;21.47;32.95;101204.08;1659394;84;20979;-59
2022/04/12 06:02:50;;;;;;;20.90;7.70;;;;;;;21.51;33.03;101208.67;1656313;85;21129;-58
2022/04/12 06:05:16;;;;;;;22.75;7.15;;;;;;;21.52;33.16;101206.13;1639754;85;20953;-58
2022/04/12 06:07:43;;;;;;;25.77;6.50;;;;;;;21.54;33.26;101203.88;1636974;85;20937;-58
2022/04/12 06:10:10;;;;;;;17.57;8.53;;;;;;;21.56;33.33;101202.98;1643850;86;20973;-59
2022/04/12 06:12:36;;;;;;;17.42;7.78;;;;;;;21.57;33.40;101208.78;1643843;85;20913;-57
2022/04/12 06:15:04;;;;;;;26.35;7.67;;;;;;;21.58;33.52;101203.51;1637796;85;21333;-58
2022/04/12 06:17:34;;;;;;;19.25;8.20;;;;;;;21.58;33.59;101203.51;1638598;85;21058;-59
2022/04/12 06:20:05;;;;;;;22.90;7.85;;;;;;;21.61;33.65;101211.73;1642833;87;20968;-58
2022/04/12 06:22:32;;;;;;;25.82;7.92;;;;;;;21.64;33.67;101212.52;1633274;86;20986;-58
2022/04/12 06:24:58;;;;;;;26.77;7.90;;;;;;;21.65;33.71;101211.36;1640188;85;20973;-59
2022/04/12 06:27:36;;;;;;;30.70;8.43;;;;;;;21.68;33.76;101213.52;1643077;85;21250;-59
2022/04/12 06:30:14;;;;;;;22.45;7.65;;;;;;;21.69;33.81;101218.72;1645426;85;20984;-60
2022/04/12 06:32:40;;;;;;;17.40;7.47;;;;;;;21.70;33.83;101213.45;1631009;86;20975;-60
2022/04/12 06:35:09;;;;;;;22.40;7.90;;;;;;;21.72;33.87;101210.37;1630613;85;20949;-60
2022/04/12 06:37:35;;;;;;;23.10;8.40;;;;;;;21.73;33.98;101207.27;1632491;85;21029;-60
2022/04/12 06:40:01;;;;;;;19.80;9.15;;;;;;;21.76;34.04;101211.38;1625991;86;21251;-60
2022/04/12 06:42:27;;;;;;;25.08;8.88;;;;;;;21.77;34.14;101210.22;1627352;86;20967;-60
2022/04/12 06:44:53;;;;;;;21.12;9.08;;;;;;;21.78;34.24;101215.45;1622286;86;20981;-60
2022/04/12 06:47:19;;;;;;;22.75;10.00;;;;;;;21.78;34.23;101219.61;1628924;86;21523;-59
2022/04/12 06:49:49;;;;;;;26.30;9.80;;;;;;;21.79;34.23;101213.50;1630299;86;20954;-60
2022/04/12 06:52:18;;;;;;;23.62;8.28;;;;;;;21.79;34.18;101220.43;1625262;86;21055;-60
2022/04/12 06:54:44;;;;;;;25.65;9.53;;;;;;;21.79;34.22;101218.48;1588470;88;20970;-61
2022/04/12 06:57:11;;;;;;;26.15;8.30;;;;;;;21.80;34.24;101222.89;1616180;86;20966;-61
2022/04/12 06:59:37;;;;;;;26.57;7.67;;;;;;;21.81;34.31;101220.95;1638888;86;21343;-61
2022/04/12 07:02:03;;;;;;;28.20;8.28;;;;;;;21.83;34.35;101216.71;1631321;86;20889;-61
2022/04/12 07:04:30;;;;;;;27.93;8.25;;;;;;;21.85;34.36;101219.18;1633405;86;21080;-61
2022/04/12 07:06:56;;;;;;;19.75;7.40;;;;;;;21.85;34.41;101217.80;1629346;86;20956;-62
2022/04/12 07:09:27;;;;;;;27.87;7.62;;;;;;;21.86;34.46;101220.23;1634193;86;21787;-61
2022/04/12 07:11:57;;;;;;;22.27;7.92;;;;;;;21.87;34.56;101216.33;1623668;86;21049;-61
2022/04/12 07:14:23;;;;;;;19.92;7.15;;;;;;;21.89;34.63;101218.80;1660234;85;21338;-59
2022/04/12 07:16:49;;;;;;;20.45;8.05;;;;;;;21.90;34.66;101217.64;1646898;85;21105;-59
2022/04/12 07:19:16;;;;;;;27.22;8.25;;;;;;;21.91;34.66;101221.23;1630260;87;21563;-60
2022/04/12 07:21:42;;;;;;;20.08;8.03;;;;;;;21.94;34.65;101220.66;1629511;86;20990;-61
2022/04/12 07:24:09;;;;;;;24.15;8.03;;;;;;;21.93;34.65;101222.59;1638980;86;21326;-59
2022/04/12 07:26:36;;;;;;;17.10;8.43;;;;;;;21.94;34.61;101222.83;1630235;87;21092;-60
2022/04/12 07:29:03;;;;;;;27.27;8.68;;;;;;;21.94;34.59;101226.98;1644865;86;21117;-59
2022/04/12 07:31:29;;;;;;;23.27;8.48;;;;;;;21.96;34.54;101230.83;1637933;85;20973;-59
2022/04/12 07:33:57;;;;;;;29.20;8.90;;;;;;;21.98;34.49;101234.13;1635165;86;20965;-58
2022/04/12 07:36:23;;;;;;;26.02;9.25;;;;;;;21.99;34.47;101226.86;1632289;87;20984;-59
2022/04/12 07:38:49;;;;;;;27.48;8.90;;;;;;;22.01;34.41;101227.94;1637036;85;20938;-59
2022/04/12 07:41:16;;;;;;;25.08;9.50;;;;;;;22.03;34.39;101229.80;1629568;86;21231;-59
2022/04/12 07:43:45;;;;;;;25.25;9.35;;;;;;;22.05;34.38;101231.70;1626433;86;20918;-59
2022/04/12 07:46:12;;;;;;;29.52;9.70;;;;;;;22.07;34.33;101235.78;1638050;86;20948;-59
2022/04/12 07:48:42;;;;;;;23.98;8.88;;;;;;;22.07;34.42;101231.62;1635422;86;20997;-58
2022/04/12 07:51:08;;;;;;;21.68;7.75;;;;;;;22.08;34.27;101231.06;1629098;86;21356;-58
2022/04/12 07:53:35;;;;;;;24.20;8.68;;;;;;;22.09;34.18;101229.94;1630429;86;21240;-58
2022/04/12 07:56:01;;;;;;;27.50;7.80;;;;;;;22.08;34.08;101235.22;1630538;86;21058;-58
2022/04/12 07:58:27;;;;;;;25.55;7.97;;;;;;;22.08;34.00;101230.50;1631794;86;20946;-59
2022/04/12 08:00:54;;;;;;;28.32;7.20;;;;;;;22.12;34.08;101227.91;1633995;86;37711;-59
2022/04/12 08:03:21;;;;;;;26.75;7.20;;;;;;;22.13;34.02;101240.64;1630848;86;21504;-59
2022/04/12 08:05:48;;;;;;;20.65;9.13;;;;;;;22.11;33.90;101231.80;1633639;86;21161;-59
2022/04/12 08:08:15;;;;;;;28.90;8.73;;;;;;;22.11;33.88;101235.96;1636797;86;20926;-59
2022/04/12 08:10:41;;;;;;;24.95;7.67;;;;;;;22.09;33.72;101234.91;1624927;87;20958;-59
2022/04/12 08:13:07;;;;;;;22.30;7.05;;;;;;;22.07;33.52;101230.80;1632250;86;21038;-59
2022/04/12 08:15:33;;;;;;;19.48;6.25;;;;;;;22.04;33.35;101224.52;1664694;85;20903;-59
2022/04/12 08:17:59;;;;;;;17.23;7.12;;;;;;;22.01;33.28;101223.78;1656695;85;22190;-59
2022/04/12 08:20:25;;;;;;;27.25;7.05;;;;;;;21.98;33.11;101219.67;1658866;85;20917;-58
2022/04/12 08:22:52;;;;;;;15.40;7.42;;;;;;;21.94;33.08;101218.67;1655830;85;21076;-58
2022/04/12 08:25:19;;;;;;;19.02;6.90;;;;;;;21.93;32.97;101212.08;1656882;85;21045;-59
2022/04/12 08:27:50;;;;;;;17.02;7.22;;;;;;;21.92;32.99;101209.02;1662480;85;20934;-59
2022/04/12 08:30:16;;;;;;;20.37;6.78;;;;;;;21.90;33.05;101216.25;1637341;86;21162;-59
2022/04/12 08:32:42;;;;;;;18.30;6.65;;;;;;;21.87;33.06;101212.17;1632556;86;20922;-59
2022/04/12 08:35:09;;;;;;;18.80;5.97;;;;;;;21.86;33.09;101208.33;1625145;86;21334;-58
2022/04/12 08:37:35;;;;;;;14.70;7.05;;;;;;;21.84;33.12;101204.51;1626874;86;21155;-59
2022/04/12 08:40:01;;;;;;;16.55;7.25;;;;;;;21.82;33.11;101203.99;1621769;86;21112;-59
2022/04/12 08:42:28;;;;;;;16.25;6.78;;;;;;;21.80;33.11;101205.45;1628659;86;21384;-61
2022/04/12 08:44:54;;;;;;;17.98;7.58;;;;;;;21.77;33.03;101199.14;1634834;86;21067;-60
2022/04/12 08:47:20;;;;;;;18.80;6.92;;;;;;;21.75;32.98;101202.81;1583588;86;21149;-59
2022/04/12 08:49:47;;;;;;;23.18;6.47;;;;;;;21.71;32.94;101194.88;1625645;86;21156;-60
2022/04/12 08:52:13;;;;;;;32.30;7.28;;;;;;;21.67;32.89;101200.23;1628901;86;21199;-59
2022/04/12 08:54:43;;;;;;;23.57;6.45;;;;;;;21.66;32.80;101199.16;1626033;86;21098;-59
2022/04/12 08:57:15;;;;;;;21.45;6.05;;;;;;;21.65;32.81;101198.90;1651295;84;20986;-59
2022/04/12 08:59:41;;;;;;;21.23;5.10;;;;;;;21.65;32.74;101198.90;1652782;86;21289;-59
2022/04/12 09:02:08;;;;;;;15.23;4.83;;;;;;;21.61;32.83;101180.72;1658198;85;21072;-58
2022/04/12 09:04:34;;;;;;;21.00;4.97;;;;;;;21.58;32.72;101181.36;1622789;87;21414;-59
2022/04/12 09:07:01;;;;;;;14.50;4.55;;;;;;;21.54;32.52;101185.07;1649399;85;22403;-61
2022/04/12 09:09:30;;;;;;;12.20;4.78;;;;;;;21.50;32.44;101186.27;1647945;85;21380;-61
2022/04/12 09:12:06;;;;;;;19.00;5.65;;;;;;;21.49;32.38;101179.65;1627395;86;22152;-62
2022/04/12 09:14:57;;;;;;;13.30;4.83;;;;;;;21.46;32.52;101169.22;1628071;86;20991;-63
2022/04/12 09:17:35;;;;;;;17.32;4.85;;;;;;;21.45;32.46;101171.16;1631880;86;21038;-58
2022/04/12 09:20:04;;;;;;;18.42;6.03;;;;;;;21.43;32.51;101167.31;1632058;87;21742;-58
2022/04/12 09:22:31;;;;;;;17.57;5.95;;;;;;;21.43;32.51;101164.31;1632316;87;21461;-58
2022/04/12 09:24:59;;;;;;;10.63;5.17;;;;;;;21.40;32.54;101164.36;1629992;86;20980;-60
2022/04/12 09:27:30;;;;;;;23.70;6.28;;;;;;;21.39;32.53;101161.34;1635735;86;20928;-60
2022/04/12 09:30:04;;;;;;;30.02;6.22;;;;;;;21.39;32.48;101164.10;1624477;86;20980;-60
2022/04/12 09:32:32;;;;;;;14.25;5.67;;;;;;;21.36;32.45;101167.51;1633320;86;21055;-60
2022/04/12 09:34:58;;;;;;;14.73;5.50;;;;;;;21.36;32.46;101161.97;1627017;86;21650;-59
2022/04/12 09:37:30;;;;;;;17.27;6.03;;;;;;;21.34;32.47;101153.18;1601906;87;20948;-61
2022/04/12 09:40:14;;;;;;;15.50;6.20;;;;;;;21.33;32.50;101156.51;1616065;86;21156;-60
2022/04/12 09:42:55;;;;;;;19.60;5.95;;;;;;;21.33;32.44;101149.59;1618299;87;22143;-62
2022/04/12 09:45:30;;;;;;;15.23;5.67;;;;;;;21.31;32.47;101149.07;1631366;86;21172;-60
2022/04/12 09:47:58;;;;;;;14.50;5.33;;;;;;;21.29;32.43;101154.69;1631352;86;20982;-62
2022/04/12 09:50:31;;;;;;;19.65;5.70;;;;;;;21.27;32.43;101154.98;1640298;86;21297;-61
2022/04/12 09:53:03;;;;;;;13.55;4.33;;;;;;;21.26;32.36;101149.78;1624456;87;21437;-62
2022/04/12 09:55:53;;;;;;;16.65;3.85;;;;;;;21.24;32.51;101154.23;1629364;86;21367;-63
2022/04/12 09:58:22;;;;;;;9.00;3.42;;;;;;;21.20;32.30;101148.26;1624483;86;21132;-63
2022/04/12 10:00:48;;;;;;;8.40;3.20;;;;;;;21.16;32.37;101134.80;1623493;87;21097;-63
2022/04/12 10:03:16;;;;;;;14.05;3.40;;;;;;;21.16;32.30;101141.72;1621591;87;21072;-63
2022/04/12 10:05:45;;;;;;;20.95;3.85;;;;;;;21.15;32.24;101148.38;1618999;87;21211;-63
2022/04/12 10:08:13;;;;;;;21.00;2.83;;;;;;;21.15;32.21;101140.08;1618776;86;21494;-62
2022/04/12 10:10:43;;;;;;;11.33;3.20;;;;;;;21.14;32.24;101135.66;1618981;86;21121;-63
2022/04/12 10:13:09;;;;;;;11.27;3.47;;;;;;;21.14;32.28;101139.25;1628388;86;21504;-62
2022/04/12 10:15:36;;;;;;;11.93;3.95;;;;;;;21.15;32.28;101139.51;1635779;86;21104;-63
2022/04/12 10:18:03;;;;;;;14.78;3.60;;;;;;;21.17;32.28;101140.59;1609778;87;20968;-63
2022/04/12 10:20:29;;;;;;;12.95;3.58;;;;;;;21.17;32.33;101135.88;1620188;87;21375;-63
2022/04/12 10:23:01;;;;;;;15.60;3.80;;;;;;;21.17;32.29;101130.91;1620284;88;21832;-59
2022/04/12 10:25:27;;;;;;;10.48;5.87;;;;;;;21.15;32.22;101140.08;1603046;88;21421;-60
2022/04/12 10:27:59;;;;;;;12.33;4.87;;;;;;;21.12;32.16;101133.76;1617245;88;21049;-59
2022/04/12 10:30:27;;;;;;;12.65;6.37;;;;;;;21.09;32.13;101136.56;1620653;88;21054;-58
2022/04/12 10:33:03;;;;;;;14.90;6.78;;;;;;;21.08;32.17;101130.80;1619472;88;21097;-59
2022/04/12 10:35:56;;;;;;;16.77;6.92;;;;;;;21.05;31.95;101130.03;1625837;87;21330;-59
2022/04/12 10:38:29;;;;;;;13.93;7.45;;;;;;;21.03;31.88;101128.16;1627031;86;21076;-59
2022/04/12 10:40:56;;;;;;;13.48;7.70;;;;;;;21.01;31.77;101124.05;1615625;87;21124;-58
2022/04/12 10:43:33;;;;;;;10.85;6.95;;;;;;;20.97;31.62;101119.71;1633017;87;21710;-58
2022/04/12 10:45:58;;;;;;;11.65;6.95;;;;;;;20.95;31.63;101120.04;1661720;85;21398;-59
2022/04/12 10:48:27;;;;;;;16.23;7.87;;;;;;;20.94;31.57;101121.16;1657686;85;21244;-58
2022/04/12 10:50:59;;;;;;;11.83;4.62;;;;;;;20.93;31.46;101111.22;1638500;85;21195;-58
2022/04/12 10:53:43;;;;;;;11.35;3.80;;;;;;;20.89;31.40;101107.45;1659220;85;20941;-59
2022/04/12 10:56:17;;;;;;;15.53;3.45;;;;;;;20.88;31.33;101105.80;1656722;84;21134;-59
2022/04/12 10:58:44;;;;;;;11.57;3.52;;;;;;;20.84;31.52;101113.09;1637695;86;21022;-58
2022/04/12 11:01:14;;;;;;;13.50;3.45;;;;;;;20.86;32.14;101110.02;1640662;85;21469;-58
2022/04/12 11:03:53;;;;;;;14.60;3.08;;;;;;;20.87;32.25;101112.48;1640950;86;21461;-58
2022/04/12 11:06:26;;;;;;;9.05;2.92;;;;;;;20.89;32.56;101106.62;1656525;85;21500;-61
2022/04/12 11:09:10;;;;;;;11.70;2.70;;;;;;;20.89;32.69;101104.68;1659994;85;22166;-61
2022/04/12 11:11:48;;;;;;;12.95;3.30;;;;;;;20.88;32.20;101107.19;1651288;85;22159;-60
2022/04/12 11:14:36;;;;;;;13.38;4.00;;;;;;;20.84;32.43;101106.17;1656673;85;21588;-60
2022/04/12 11:17:05;;;;;;;15.83;4.55;;;;;;;20.85;32.58;101105.62;1657425;85;21031;-60
2022/04/12 11:19:47;;;;;;;20.00;5.95;;;;;;;20.84;32.57;101106.73;1654327;85;21099;-59
2022/04/12 11:22:15;;;;;;;20.30;5.92;;;;;;;20.85;32.64;101104.23;1649830;84;20920;-59
2022/04/12 11:24:41;;;;;;;16.37;4.42;;;;;;;20.86;32.70;101108.64;1650019;84;20913;-59
2022/04/12 11:27:10;;;;;;;17.27;5.50;;;;;;;20.85;32.82;101114.73;1623070;87;21120;-61
2022/04/12 11:29:38;;;;;;;16.37;5.87;;;;;;;20.85;32.89;101107.82;1636910;85;20937;-60